RJSFRJAH

Guest
Details From RJSF - Fukushima
To RJAH - HYAKURI
Flight Number -
Tags generated
Created
Modified
Stats Distance 63 nm / 116 km
Max Altitude 4,600 ft / 1,402 m
Waypoints 3
Social Downloads 0
Likes 0
Share VATSIM

Download

Looking for another format? Having issues loading an existing format? Contact us
Advertisement - Login to hide

Notes

Basic altitude profile: - Ascent Rate: 2500ft/min - Ascent Speed: 250kts - Cruise Altitude: 35000ft - Cruise Speed: 420kts - Descent Rate: 1500ft/min - Descent Speed: 250kts

Route

RJSF MILKY RJAH

ID Type Via Altitude Latitude Longitude Leg Dist Tot Dist Heading (true) Name
O RJSF APT - 0 ft / 0 m 37.22743˚ 140.42797˚ - 0 nm - Fukushima
MILKY FIX - 4,600 ft / 1,402 m 36.54578˚ 140.43848˚ 40 nm 40 nm 179° / 179° -
O RJAH APT - 0 ft / 0 m 36.18107˚ 140.41543˚ 21 nm 62 nm 183° / 183° HYAKURI

Altitude Profile

Advertisement - Login to hide

RJSF

Details ICAO RJSF (FKS)
Name Fukushima
Region Japan
Timezone Asia/Tokyo (UTC+9.0)
Stats Elevation 1,220 ft / 372 m (AMSL)
Location 37.227429° 140.427974°
Runways 1
Magnetic Variation 7.869° W

METAR

RJSF 180700Z 23006KT CAVOK 05/M10 Q1019

Decode

TAF

TAF RJSF 180505Z 1806/1912 20010KT 9999 FEW030 SCT050 BECMG 1903/1906 32005KT

Decode

Departure Runways

ID Width Length Bearing (true) Bearing (mag) Surface Threshold Offset Overrun Length
01 197 ft / 60 m 8,219 ft / 2,505 m 2.19° 10.06° Asphalt 0 ft / 0 m 197 ft / 60 m
19 197 ft / 60 m 8,219 ft / 2,505 m 182.19° 190.06° Asphalt 0 ft / 0 m 197 ft / 60 m

RJAH

Details ICAO RJAH (IBR)
Name HYAKURI
Region Japan
Timezone Asia/Tokyo (UTC+9.0)
Stats Elevation 105 ft / 32 m (AMSL)
Location 36.181069° 140.415431°
Runways 1
Magnetic Variation 7.533° W

METAR

RJAH 180700Z 20004KT 9999 FEW030 06/M06 Q1021

Decode

TAF

TAF TAF RJAH 180506Z 1806/1912 24005KT 9999 FEW030 BECMG 1810/1812 35004KT BECMG 1821/1900 23008KT BECMG 1909/1912 32010KT

Decode

Destination Runways

ID Width Length Bearing (true) Bearing (mag) Surface Threshold Offset Overrun Length
03 150 ft / 46 m 8,891 ft / 2,710 m 19.85° 27.38° Concrete 0 ft / 0 m 1,066 ft / 325 m
21 150 ft / 46 m 8,891 ft / 2,710 m 199.85° 207.38° Concrete 0 ft / 0 m 1,066 ft / 325 m

Approach Navaids

Runway Type Ident Frequency Range Bearing (true) Bearing (mag) Slope Elevation
03 Localiser IHY 109.30 MHz 18 nm / 33 km 19.76° 27.29° - 105 ft / 32 m (AMSL)
03 Glidescope IHY 109.30 MHz 10 nm / 19 km 19.85° 27.38° 2.75° 105 ft / 32 m (AMSL)